Time;durP1;ratioP1;P1;durP2;ratioP2;P2;SDS_P1;SDS_P2;PMS_P1;PMS_P2;Temp;Humidity;BMP_temperature;BMP_pressure;BME280_temperature;BME280_humidity;BME280_pressure;Samples;Min_cycle;Max_cycle;Signal;HPM_P1;HPM_P2
2021/03/09 00:00:36;;;;;;;17.40;8.13;;;1.30;86.30;;;;;;5045178;28;20215;-70
2021/03/09 00:03:03;;;;;;;20.03;8.30;;;1.30;86.50;;;;;;5052227;28;20223;-70
2021/03/09 00:05:29;;;;;;;22.80;10.13;;;1.30;86.50;;;;;;5043176;28;20206;-69
2021/03/09 00:07:54;;;;;;;18.40;8.20;;;1.20;86.30;;;;;;5035041;28;20186;-69
2021/03/09 00:10:20;;;;;;;14.23;8.60;;;1.20;86.50;;;;;;5041180;28;20238;-69
2021/03/09 00:12:46;;;;;;;18.13;8.50;;;1.20;86.60;;;;;;5046573;28;20216;-69
2021/03/09 00:15:12;;;;;;;17.00;8.67;;;1.20;86.90;;;;;;5036161;28;20451;-70
2021/03/09 00:17:38;;;;;;;17.88;8.77;;;1.10;87.00;;;;;;5037684;28;20341;-69
2021/03/09 00:20:04;;;;;;;18.40;8.37;;;1.10;87.10;;;;;;5033148;28;20735;-70
2021/03/09 00:22:30;;;;;;;16.70;8.60;;;1.10;87.30;;;;;;5030780;28;20510;-70
2021/03/09 00:24:56;;;;;;;15.47;8.23;;;1.00;87.60;;;;;;5031300;28;20177;-71
2021/03/09 00:27:21;;;;;;;19.50;8.07;;;1.10;87.70;;;;;;5030659;28;20720;-69
2021/03/09 00:29:47;;;;;;;18.90;9.20;;;1.00;87.60;;;;;;5030591;28;20185;-72
2021/03/09 00:32:13;;;;;;;21.27;10.30;;;1.00;87.70;;;;;;5031980;28;20617;-69
2021/03/09 00:34:39;;;;;;;19.63;8.53;;;1.00;87.80;;;;;;5030852;28;20432;-69
2021/03/09 00:37:05;;;;;;;21.37;9.23;;;1.00;87.80;;;;;;5032522;28;20201;-70
2021/03/09 00:39:31;;;;;;;16.85;9.68;;;1.00;87.80;;;;;;5032241;28;20191;-70
2021/03/09 00:41:57;;;;;;;18.50;9.50;;;0.90;88.00;;;;;;5031388;28;20236;-69
2021/03/09 00:44:23;;;;;;;22.93;11.00;;;0.90;88.30;;;;;;5019116;28;20244;-70
2021/03/09 00:46:49;;;;;;;20.17;9.60;;;0.90;88.30;;;;;;5046386;28;20180;-70
2021/03/09 00:49:15;;;;;;;19.42;9.18;;;0.90;88.30;;;;;;5039028;28;20315;-70
2021/03/09 00:51:41;;;;;;;20.57;9.70;;;0.90;88.30;;;;;;5034943;28;20193;-71
2021/03/09 00:54:06;;;;;;;20.77;9.33;;;0.90;88.30;;;;;;5044950;28;21221;-71
2021/03/09 00:56:32;;;;;;;19.90;8.80;;;0.90;88.60;;;;;;5039020;28;20186;-71
2021/03/09 00:58:58;;;;;;;15.03;9.10;;;0.90;88.60;;;;;;5052243;28;20223;-71
2021/03/09 01:01:23;;;;;;;27.10;10.77;;;0.90;88.60;;;;;;5052147;28;20181;-70
2021/03/09 01:03:49;;;;;;;19.67;9.57;;;0.80;88.60;;;;;;5045856;28;20248;-71
2021/03/09 01:06:15;;;;;;;17.10;8.60;;;0.80;88.90;;;;;;5031525;28;20173;-70
2021/03/09 01:08:41;;;;;;;16.27;8.63;;;0.70;88.90;;;;;;5030922;28;20949;-71
2021/03/09 01:11:06;;;;;;;17.90;9.60;;;0.70;89.00;;;;;;5045354;28;20422;-73
2021/03/09 01:13:32;;;;;;;21.10;9.40;;;0.70;89.20;;;;;;5038218;28;20699;-70
2021/03/09 01:15:58;;;;;;;20.20;9.20;;;0.70;89.20;;;;;;5051374;28;20242;-70
2021/03/09 01:18:23;;;;;;;18.20;9.97;;;0.70;89.30;;;;;;5052179;28;20581;-71
2021/03/09 01:20:49;;;;;;;19.00;8.93;;;0.70;89.30;;;;;;5037100;28;20193;-70
2021/03/09 01:23:15;;;;;;;19.23;10.10;;;0.60;89.30;;;;;;5044087;28;20288;-69
2021/03/09 01:25:42;;;;;;;19.10;9.73;;;0.60;89.50;;;;;;5044539;28;20994;-72
2021/03/09 01:28:09;;;;;;;21.67;10.55;;;0.60;89.60;;;;;;5038278;28;20442;-71
2021/03/09 01:30:35;;;;;;;21.27;9.98;;;0.60;89.90;;;;;;5030010;28;20530;-71
2021/03/09 01:33:01;;;;;;;16.38;9.82;;;0.60;89.90;;;;;;5037293;28;20208;-72
2021/03/09 01:35:27;;;;;;;19.97;9.57;;;0.60;89.90;;;;;;5034364;28;20181;-71
2021/03/09 01:37:52;;;;;;;17.30;9.17;;;0.70;89.70;;;;;;5037814;28;20443;-69
2021/03/09 01:40:19;;;;;;;21.60;10.70;;;0.70;89.60;;;;;;5053543;28;20426;-69
2021/03/09 01:42:45;;;;;;;22.60;10.52;;;0.60;89.60;;;;;;5030303;28;20225;-70
2021/03/09 01:45:11;;;;;;;18.10;8.53;;;0.60;89.70;;;;;;5024627;28;20228;-69
2021/03/09 01:47:42;;;;;;;18.85;9.40;;;0.70;89.70;;;;;;5046392;28;20178;-70
2021/03/09 01:50:10;;;;;;;20.77;9.68;;;0.60;89.70;;;;;;5043305;28;20228;-70
2021/03/09 01:52:36;;;;;;;19.20;10.73;;;0.60;89.70;;;;;;5041339;28;20203;-70
2021/03/09 01:55:04;;;;;;;18.08;9.55;;;0.60;89.70;;;;;;5038258;28;20188;-70
2021/03/09 01:57:29;;;;;;;21.00;9.85;;;0.60;89.70;;;;;;5034460;28;20181;-70
2021/03/09 01:59:56;;;;;;;19.13;10.13;;;0.60;89.90;;;;;;5044419;28;20311;-70
2021/03/09 02:02:23;;;;;;;19.10;9.75;;;0.60;90.00;;;;;;5039644;28;20693;-70
2021/03/09 02:04:49;;;;;;;22.52;10.63;;;0.60;90.20;;;;;;5037086;28;20181;-69
2021/03/09 02:07:15;;;;;;;22.40;10.68;;;0.50;90.20;;;;;;5050511;28;20185;-70
2021/03/09 02:09:41;;;;;;;25.10;11.03;;;0.50;90.40;;;;;;5037081;28;20690;-70
2021/03/09 02:12:32;;;;;;;21.50;10.70;;;0.60;90.30;;;;;;5041741;28;20216;-69
2021/03/09 02:15:17;;;;;;;26.70;11.68;;;0.50;90.30;;;;;;5043068;28;20204;-69
2021/03/09 02:17:53;;;;;;;21.75;10.45;;;0.50;90.40;;;;;;5043440;28;20587;-69
2021/03/09 02:21:04;;;;;;;19.75;10.45;;;0.50;90.50;;;;;;5039417;28;20192;-70
2021/03/09 02:23:52;;;;;;;24.67;11.77;;;0.50;90.50;;;;;;5020275;28;20208;-69
2021/03/09 02:26:42;;;;;;;25.33;10.23;;;0.50;90.50;;;;;;5043504;28;20185;-69
2021/03/09 02:29:11;;;;;;;19.10;9.55;;;0.50;90.50;;;;;;5043440;28;20180;-70
2021/03/09 02:31:40;;;;;;;21.05;10.43;;;0.40;90.70;;;;;;5039756;28;20208;-71
2021/03/09 02:34:11;;;;;;;20.25;10.40;;;0.40;90.80;;;;;;5036783;28;20267;-71
2021/03/09 02:36:39;;;;;;;22.13;10.40;;;0.40;90.80;;;;;;5038181;28;20352;-70
2021/03/09 02:39:08;;;;;;;20.50;11.45;;;0.40;90.80;;;;;;5029546;28;20664;-70
2021/03/09 02:41:45;;;;;;;20.30;10.48;;;0.30;90.80;;;;;;5029625;28;20265;-71
2021/03/09 02:44:15;;;;;;;24.17;11.18;;;0.40;90.90;;;;;;5021541;28;20227;-70
2021/03/09 02:46:43;;;;;;;29.00;11.55;;;0.40;90.90;;;;;;5037836;28;20490;-71
2021/03/09 02:49:11;;;;;;;19.45;9.93;;;0.40;90.90;;;;;;5035511;28;20589;-70
2021/03/09 02:51:40;;;;;;;25.90;11.68;;;0.40;90.80;;;;;;5032531;28;20235;-72
2021/03/09 02:54:08;;;;;;;24.00;11.25;;;0.40;90.70;;;;;;5036900;28;20528;-69
2021/03/09 02:56:39;;;;;;;19.42;10.57;;;0.30;90.90;;;;;;5041026;28;20182;-70
2021/03/09 02:59:08;;;;;;;20.75;10.32;;;0.30;90.90;;;;;;5048121;28;20204;-71
2021/03/09 03:01:36;;;;;;;21.63;10.65;;;0.30;91.00;;;;;;5049121;28;20212;-70
2021/03/09 03:04:05;;;;;;;19.05;9.95;;;0.30;90.90;;;;;;5049361;28;20291;-69
2021/03/09 03:06:33;;;;;;;24.38;10.45;;;0.30;90.90;;;;;;5049397;28;20193;-69
2021/03/09 03:09:01;;;;;;;23.75;11.02;;;0.30;91.00;;;;;;5038098;28;20185;-69
2021/03/09 03:11:27;;;;;;;25.02;11.60;;;0.40;90.90;;;;;;5029057;28;20186;-68
2021/03/09 03:13:54;;;;;;;22.65;11.88;;;0.40;90.80;;;;;;5029747;28;20738;-70
2021/03/09 03:16:22;;;;;;;21.52;9.85;;;0.30;90.80;;;;;;5028455;28;20189;-70
2021/03/09 03:18:48;;;;;;;23.80;11.45;;;0.30;90.80;;;;;;5038412;28;20188;-70
2021/03/09 03:21:16;;;;;;;25.90;11.70;;;0.30;90.90;;;;;;5035243;28;20188;-70
2021/03/09 03:23:43;;;;;;;21.20;10.27;;;0.30;91.00;;;;;;5047848;28;20220;-70
2021/03/09 03:26:12;;;;;;;21.38;11.57;;;0.30;91.00;;;;;;5044352;28;20676;-69
2021/03/09 03:28:43;;;;;;;23.95;11.98;;;0.30;90.90;;;;;;5041559;28;20647;-70
2021/03/09 03:31:09;;;;;;;19.30;10.50;;;0.30;90.90;;;;;;5036801;28;20172;-69
2021/03/09 03:33:35;;;;;;;19.80;10.43;;;0.30;90.90;;;;;;5039998;28;20208;-69
2021/03/09 03:36:05;;;;;;;22.15;10.88;;;0.30;90.90;;;;;;5044883;28;20191;-69
2021/03/09 03:38:36;;;;;;;23.23;10.02;;;0.30;90.90;;;;;;5044486;28;20192;-69
2021/03/09 03:41:03;;;;;;;17.60;9.57;;;0.30;90.90;;;;;;5019967;28;20181;-69
2021/03/09 03:43:29;;;;;;;23.77;11.13;;;0.30;91.00;;;;;;5019344;28;20213;-68
2021/03/09 03:45:55;;;;;;;21.25;10.60;;;0.30;91.00;;;;;;5034968;28;20631;-69
2021/03/09 03:48:22;;;;;;;21.20;10.57;;;0.20;90.90;;;;;;5048782;28;20193;-69
2021/03/09 03:50:52;;;;;;;23.15;11.20;;;0.30;90.90;;;;;;5025216;28;20609;-70
2021/03/09 03:53:39;;;;;;;22.40;10.82;;;0.30;90.80;;;;;;5042538;28;20208;-69
2021/03/09 03:56:19;;;;;;;22.30;12.75;;;0.30;90.90;;;;;;5038325;28;20177;-69
2021/03/09 03:58:53;;;;;;;25.10;12.00;;;0.20;90.90;;;;;;5027882;28;20189;-70
2021/03/09 04:01:23;;;;;;;25.95;11.55;;;0.20;91.20;;;;;;5042236;28;20191;-69
2021/03/09 04:03:53;;;;;;;24.45;11.43;;;0.20;91.30;;;;;;5016619;28;20699;-71
2021/03/09 04:06:24;;;;;;;22.90;11.90;;;0.20;91.40;;;;;;5042099;28;20587;-70
2021/03/09 04:08:50;;;;;;;26.40;12.43;;;0.20;91.50;;;;;;5025991;28;20272;-70
2021/03/09 04:11:17;;;;;;;26.23;12.13;;;0.20;91.40;;;;;;5031503;28;20319;-70
2021/03/09 04:13:43;;;;;;;23.52;11.32;;;0.20;91.40;;;;;;5040430;28;20205;-70
2021/03/09 04:16:15;;;;;;;25.13;11.13;;;0.20;91.50;;;;;;5032142;28;20184;-70
2021/03/09 04:18:42;;;;;;;19.50;11.65;;;0.20;91.50;;;;;;5039909;28;20188;-71
2021/03/09 04:21:09;;;;;;;26.88;12.60;;;0.20;91.50;;;;;;5041139;28;20199;-70
2021/03/09 04:23:37;;;;;;;24.33;12.18;;;0.20;91.40;;;;;;5029633;28;20223;-70
2021/03/09 04:26:04;;;;;;;27.35;12.70;;;0.10;91.50;;;;;;5028762;28;20178;-71
2021/03/09 04:28:31;;;;;;;24.15;11.63;;;0.10;91.60;;;;;;5030595;28;20188;-70
2021/03/09 04:30:58;;;;;;;23.48;12.38;;;0.10;91.60;;;;;;5047870;28;20184;-70
2021/03/09 04:33:26;;;;;;;23.75;11.52;;;0.10;91.60;;;;;;5049671;28;20215;-70
2021/03/09 04:35:55;;;;;;;24.02;11.88;;;0.10;91.70;;;;;;5047826;28;20184;-71
2021/03/09 04:38:21;;;;;;;20.88;10.82;;;0.10;91.80;;;;;;5047537;28;20242;-71
2021/03/09 04:40:47;;;;;;;23.13;11.93;;;0.10;91.90;;;;;;5047387;28;20200;-71
2021/03/09 04:43:13;;;;;;;23.17;12.13;;;0.10;91.90;;;;;;5029242;28;20326;-69
2021/03/09 04:45:39;;;;;;;26.33;11.40;;;0.00;91.90;;;;;;5042483;28;20612;-68
2021/03/09 04:48:06;;;;;;;21.40;11.47;;;0.00;92.10;;;;;;5042609;28;20199;-69
2021/03/09 04:50:33;;;;;;;23.83;11.43;;;0.00;91.90;;;;;;5043878;28;20197;-71
2021/03/09 04:53:00;;;;;;;21.75;10.45;;;0.00;91.90;;;;;;5032464;28;20209;-70
2021/03/09 04:55:27;;;;;;;19.52;10.48;;;0.00;92.10;;;;;;5045272;28;20186;-70
2021/03/09 04:57:54;;;;;;;25.40;11.50;;;0.00;91.80;;;;;;5031491;28;20193;-69
2021/03/09 05:00:22;;;;;;;20.17;10.75;;;0.00;91.90;;;;;;5044746;28;20192;-70
2021/03/09 05:02:49;;;;;;;23.98;11.73;;;0.00;91.80;;;;;;5032462;28;20201;-70
2021/03/09 05:05:17;;;;;;;20.25;10.80;;;0.00;91.70;;;;;;5036623;28;20267;-71
2021/03/09 05:07:43;;;;;;;21.67;11.40;;;0.00;91.70;;;;;;5039776;28;20260;-71
2021/03/09 05:10:10;;;;;;;25.67;11.45;;;0.00;91.80;;;;;;5044910;28;20181;-69
2021/03/09 05:12:41;;;;;;;18.92;9.80;;;0.00;91.50;;;;;;5049478;28;20261;-69
2021/03/09 05:15:07;;;;;;;23.25;11.70;;;0.00;91.50;;;;;;5023832;28;20201;-70
2021/03/09 05:17:33;;;;;;;26.88;11.10;;;0.00;91.30;;;;;;5048598;28;20256;-70
2021/03/09 05:19:58;;;;;;;21.27;10.97;;;0.00;91.30;;;;;;5045713;28;20220;-69
2021/03/09 05:22:24;;;;;;;20.43;10.43;;;0.00;91.20;;;;;;5043506;28;20213;-70
2021/03/09 05:24:50;;;;;;;19.20;11.40;;;0.00;90.90;;;;;;5050145;28;20221;-72
2021/03/09 05:27:15;;;;;;;24.90;10.87;;;0.00;90.90;;;;;;5049034;28;20242;-70
2021/03/09 05:29:41;;;;;;;18.23;10.50;;;-0.10;90.90;;;;;;5038671;28;20275;-71
2021/03/09 05:32:07;;;;;;;24.53;10.77;;;-0.10;91.10;;;;;;5037356;28;20223;-70
2021/03/09 05:34:33;;;;;;;25.87;12.33;;;-0.10;91.20;;;;;;5044835;28;20413;-70
2021/03/09 05:36:59;;;;;;;27.00;12.40;;;-0.10;91.30;;;;;;5032308;28;20486;-68
2021/03/09 05:39:24;;;;;;;29.70;11.67;;;-0.10;91.60;;;;;;5044397;28;20193;-69
2021/03/09 05:41:50;;;;;;;25.83;12.90;;;0.00;91.80;;;;;;5045325;28;20185;-69
2021/03/09 05:44:16;;;;;;;27.90;12.80;;;0.00;91.90;;;;;;5019443;28;20249;-70
2021/03/09 05:46:42;;;;;;;26.47;12.10;;;0.00;92.10;;;;;;5034287;28;20189;-70
2021/03/09 05:49:09;;;;;;;23.93;12.00;;;0.00;92.20;;;;;;5047208;28;20205;-72
2021/03/09 05:51:34;;;;;;;25.67;12.75;;;0.10;92.30;;;;;;5050988;28;20514;-73
2021/03/09 05:54:00;;;;;;;28.40;13.50;;;0.10;92.30;;;;;;5033152;28;20209;-73
2021/03/09 05:56:27;;;;;;;28.93;14.40;;;0.10;92.30;;;;;;5030975;28;20934;-72
2021/03/09 05:58:53;;;;;;;33.30;16.02;;;0.10;92.20;;;;;;5037268;28;20196;-73
2021/03/09 06:01:19;;;;;;;37.40;17.00;;;0.10;92.20;;;;;;5051504;28;20188;-73
2021/03/09 06:03:46;;;;;;;29.33;14.45;;;0.10;92.40;;;;;;5045643;28;20475;-75
2021/03/09 06:06:12;;;;;;;37.47;16.45;;;0.10;92.60;;;;;;5029587;28;20193;-73
2021/03/09 06:08:39;;;;;;;34.58;16.17;;;0.20;92.50;;;;;;5050910;28;20266;-73
2021/03/09 06:11:22;;;;;;;27.50;13.80;;;0.20;92.50;;;;;;5038275;28;20660;-71
2021/03/09 06:13:48;;;;;;;29.33;13.90;;;0.30;92.30;;;;;;5020313;28;20562;-73
2021/03/09 06:16:15;;;;;;;24.93;12.23;;;0.30;92.10;;;;;;5044217;28;20231;-71
2021/03/09 06:19:01;;;;;;;30.30;13.75;;;0.30;91.60;;;;;;5040342;28;20208;-72
2021/03/09 06:21:26;;;;;;;29.55;13.93;;;0.30;91.10;;;;;;5038297;28;20192;-72
2021/03/09 06:23:53;;;;;;;24.57;11.57;;;0.20;91.10;;;;;;5039523;28;20759;-71
2021/03/09 06:26:38;;;;;;;26.40;12.15;;;0.20;91.00;;;;;;5045105;28;20710;-70
2021/03/09 06:29:17;;;;;;;26.17;12.75;;;0.30;90.90;;;;;;5044988;28;20216;-72
2021/03/09 06:31:48;;;;;;;26.25;12.85;;;0.30;90.60;;;;;;5040931;28;20185;-71
2021/03/09 06:34:29;;;;;;;30.15;12.95;;;0.40;90.60;;;;;;5035628;28;20211;-70
2021/03/09 06:37:17;;;;;;;32.10;13.13;;;0.40;90.40;;;;;;5038468;28;20678;-71
2021/03/09 06:39:57;;;;;;;27.38;12.15;;;0.50;90.40;;;;;;5020594;28;20188;-71
2021/03/09 06:42:36;;;;;;;25.02;12.82;;;0.50;90.40;;;;;;5040354;28;20213;-71
2021/03/09 06:45:12;;;;;;;27.55;12.65;;;0.50;90.40;;;;;;5022632;28;20200;-70
2021/03/09 06:47:48;;;;;;;31.15;14.15;;;0.60;90.50;;;;;;5017583;28;20195;-71
2021/03/09 06:50:16;;;;;;;36.47;16.08;;;0.70;90.40;;;;;;5038689;28;20739;-70
2021/03/09 06:52:44;;;;;;;24.77;13.30;;;0.80;89.90;;;;;;5029571;28;20208;-70
2021/03/09 06:55:12;;;;;;;28.00;13.20;;;0.90;89.50;;;;;;5031357;28;20188;-71
2021/03/09 06:57:39;;;;;;;26.73;12.90;;;0.90;89.30;;;;;;5032531;28;20697;-72
2021/03/09 07:00:08;;;;;;;30.95;13.23;;;1.00;89.30;;;;;;5042724;28;20185;-71
2021/03/09 07:02:34;;;;;;;28.65;13.55;;;1.20;88.70;;;;;;5040217;28;20707;-72
2021/03/09 07:05:05;;;;;;;25.55;13.07;;;1.20;88.10;;;;;;5035821;28;20651;-70
2021/03/09 07:07:32;;;;;;;30.27;13.30;;;1.30;88.00;;;;;;5039128;28;20226;-72
2021/03/09 07:10:07;;;;;;;24.85;13.13;;;1.40;87.80;;;;;;5043219;28;20194;-70
2021/03/09 07:12:34;;;;;;;30.55;13.45;;;1.40;87.70;;;;;;5043923;28;20203;-70
2021/03/09 07:15:00;;;;;;;30.50;14.43;;;1.50;87.60;;;;;;5037553;28;20180;-70
2021/03/09 07:17:32;;;;;;;28.23;12.70;;;1.60;87.00;;;;;;5036088;28;20188;-71
2021/03/09 07:19:59;;;;;;;28.23;13.55;;;1.70;86.90;;;;;;5036144;28;20557;-71
2021/03/09 07:22:26;;;;;;;34.33;14.77;;;1.80;86.20;;;;;;5035980;28;20212;-70
2021/03/09 07:25:07;;;;;;;27.42;14.43;;;1.90;85.60;;;;;;5041200;28;20684;-71
2021/03/09 07:27:51;;;;;;;27.45;13.98;;;1.90;85.20;;;;;;5032012;28;20192;-72
2021/03/09 07:30:19;;;;;;;28.15;13.23;;;1.90;85.00;;;;;;5037308;28;20308;-71
2021/03/09 07:32:50;;;;;;;29.95;14.15;;;2.00;84.70;;;;;;5043092;28;20675;-71
2021/03/09 07:35:16;;;;;;;30.63;14.38;;;2.10;84.30;;;;;;5042071;28;20263;-71
2021/03/09 07:37:43;;;;;;;24.83;13.45;;;2.20;84.00;;;;;;5048963;28;20189;-70
2021/03/09 07:40:14;;;;;;;23.55;12.85;;;2.20;83.70;;;;;;5048092;28;20302;-70
2021/03/09 07:42:41;;;;;;;33.15;14.55;;;2.30;83.70;;;;;;5024755;28;20202;-69
2021/03/09 07:45:13;;;;;;;36.67;14.98;;;2.20;83.40;;;;;;5021798;28;20232;-71
2021/03/09 07:47:59;;;;;;;30.08;13.05;;;2.30;84.00;;;;;;5016815;28;20223;-72
2021/03/09 07:50:34;;;;;;;33.40;15.25;;;2.40;83.80;;;;;;5038222;28;20200;-71
2021/03/09 07:53:11;;;;;;;31.90;14.55;;;2.60;83.30;;;;;;5040448;28;20276;-71
2021/03/09 07:55:39;;;;;;;29.00;14.52;;;2.70;82.70;;;;;;5039630;28;20263;-69
2021/03/09 07:58:26;;;;;;;29.23;15.52;;;2.70;82.70;;;;;;5032145;28;20216;-69
2021/03/09 08:01:02;;;;;;;32.30;15.98;;;2.90;82.10;;;;;;5039020;28;20185;-71
2021/03/09 08:03:31;;;;;;;36.30;15.52;;;3.00;81.70;;;;;;5042372;28;20208;-71
2021/03/09 08:06:01;;;;;;;30.85;14.63;;;3.10;80.60;;;;;;5039882;28;20176;-71
2021/03/09 08:08:40;;;;;;;25.73;14.23;;;3.10;80.20;;;;;;5035012;28;20885;-70
2021/03/09 08:11:27;;;;;;;32.35;14.18;;;3.20;80.30;;;;;;5035162;28;20423;-71
2021/03/09 08:14:08;;;;;;;32.22;14.85;;;3.20;80.30;;;;;;5044583;28;20365;-71
2021/03/09 08:16:35;;;;;;;29.80;14.20;;;3.10;80.50;;;;;;5035111;28;20193;-70
2021/03/09 08:19:03;;;;;;;32.45;15.13;;;3.10;80.60;;;;;;5051110;28;20504;-71
2021/03/09 08:21:47;;;;;;;30.15;15.70;;;3.20;80.80;;;;;;5039184;28;20192;-71
2021/03/09 08:24:13;;;;;;;32.60;15.77;;;3.10;81.10;;;;;;5038729;28;20212;-69
2021/03/09 08:26:39;;;;;;;41.90;16.43;;;3.00;81.50;;;;;;5053024;28;20764;-72
2021/03/09 08:29:29;;;;;;;35.90;16.40;;;3.00;81.80;;;;;;5038518;28;20428;-71
2021/03/09 08:32:23;;;;;;;43.25;17.20;;;3.00;81.70;;;;;;5040678;28;20279;-70
2021/03/09 08:34:49;;;;;;;36.20;16.73;;;3.00;81.90;;;;;;5020285;28;20550;-72
2021/03/09 08:37:31;;;;;;;33.80;17.30;;;3.30;81.90;;;;;;5048770;28;20184;-70
2021/03/09 08:40:12;;;;;;;44.40;18.35;;;3.40;81.10;;;;;;5041117;28;20184;-70
2021/03/09 08:43:02;;;;;;;35.73;17.77;;;3.60;80.80;;;;;;5014900;28;20216;-71
2021/03/09 08:45:39;;;;;;;43.27;16.70;;;3.70;79.50;;;;;;5028752;28;20939;-71
2021/03/09 08:48:06;;;;;;;38.80;17.20;;;3.90;78.60;;;;;;5043920;28;20415;-69
2021/03/09 08:50:44;;;;;;;44.73;17.67;;;4.00;78.70;;;;;;5045786;28;20451;-70
2021/03/09 08:53:31;;;;;;;36.47;18.00;;;4.10;77.80;;;;;;5032151;28;20459;-71
2021/03/09 08:56:01;;;;;;;33.40;18.40;;;4.10;77.70;;;;;;5024826;28;20430;-71
2021/03/09 08:58:27;;;;;;;39.13;17.87;;;4.20;77.40;;;;;;5034419;28;20428;-71
2021/03/09 09:00:53;;;;;;;44.80;17.70;;;4.20;77.40;;;;;;5032699;28;20435;-70
2021/03/09 09:03:35;;;;;;;40.60;17.17;;;4.40;77.30;;;;;;5041514;28;20497;-72
2021/03/09 09:06:02;;;;;;;32.47;17.57;;;4.40;76.20;;;;;;5053711;28;20423;-70
2021/03/09 09:08:30;;;;;;;33.03;16.50;;;4.50;75.70;;;;;;5040346;28;20514;-70
2021/03/09 09:10:57;;;;;;;42.23;17.77;;;4.50;76.10;;;;;;5038662;28;20445;-71
2021/03/09 09:13:31;;;;;;;40.10;18.60;;;4.60;75.90;;;;;;5018738;28;20443;-71
2021/03/09 09:15:57;;;;;;;41.03;19.37;;;4.70;75.40;;;;;;5044625;28;20414;-71
2021/03/09 09:18:23;;;;;;;37.27;18.63;;;4.80;75.40;;;;;;5031880;28;20447;-72
2021/03/09 09:20:50;;;;;;;31.67;16.33;;;4.90;74.80;;;;;;5045781;28;20568;-70
2021/03/09 09:23:26;;;;;;;35.30;18.37;;;5.00;74.80;;;;;;5040007;28;20463;-72
2021/03/09 09:26:02;;;;;;;37.80;18.67;;;5.20;74.00;;;;;;5034346;28;20915;-69
2021/03/09 09:28:41;;;;;;;37.97;18.40;;;5.40;73.30;;;;;;5040863;28;20430;-69
2021/03/09 09:31:13;;;;;;;41.93;19.10;;;5.50;72.30;;;;;;5043385;28;20524;-70
2021/03/09 09:33:38;;;;;;;33.50;17.53;;;5.20;72.70;;;;;;5045042;28;20446;-70
2021/03/09 09:36:04;;;;;;;37.43;18.83;;;5.20;73.30;;;;;;5040474;28;20426;-72
2021/03/09 09:38:30;;;;;;;39.00;18.40;;;4.90;73.90;;;;;;5039217;28;20185;-73
2021/03/09 09:40:59;;;;;;;44.47;19.43;;;4.90;74.00;;;;;;5044201;28;20519;-71
2021/03/09 09:43:35;;;;;;;38.77;17.83;;;4.90;74.30;;;;;;5023307;28;20477;-71
2021/03/09 09:46:08;;;;;;;39.53;19.00;;;5.10;74.60;;;;;;5018627;28;20934;-71
2021/03/09 09:48:38;;;;;;;35.30;16.90;;;5.20;73.70;;;;;;5043997;28;20454;-72
2021/03/09 09:51:06;;;;;;;41.83;19.80;;;5.40;73.30;;;;;;5026950;28;20954;-70
2021/03/09 09:53:39;;;;;;;41.43;19.43;;;5.40;72.70;;;;;;5043979;28;20439;-74
2021/03/09 09:56:14;;;;;;;40.37;19.60;;;5.50;72.60;;;;;;5040040;28;20515;-71
2021/03/09 09:58:44;;;;;;;40.77;18.83;;;5.50;72.10;;;;;;5031285;28;20945;-72
2021/03/09 10:01:14;;;;;;;39.10;19.13;;;5.40;72.40;;;;;;5031284;28;20428;-72
2021/03/09 10:03:50;;;;;;;39.30;20.00;;;5.30;72.60;;;;;;5042467;28;20470;-69
2021/03/09 10:06:17;;;;;;;43.60;18.93;;;5.50;72.60;;;;;;5029882;28;20424;-71
2021/03/09 10:08:44;;;;;;;43.03;18.47;;;5.60;71.80;;;;;;5037894;28;20438;-73
2021/03/09 10:11:10;;;;;;;43.10;18.70;;;5.80;71.40;;;;;;5036255;28;20478;-72
2021/03/09 10:13:37;;;;;;;38.40;17.53;;;6.00;70.80;;;;;;5041088;28;20480;-72
2021/03/09 10:16:03;;;;;;;42.30;18.67;;;6.20;70.10;;;;;;5043289;28;20477;-69
2021/03/09 10:18:34;;;;;;;36.30;18.60;;;6.30;69.20;;;;;;5036978;28;20434;-72
2021/03/09 10:21:14;;;;;;;33.10;16.73;;;6.40;69.10;;;;;;5047804;28;20434;-71
2021/03/09 10:23:53;;;;;;;43.33;19.43;;;6.30;68.00;;;;;;5041115;28;21030;-71
2021/03/09 10:26:47;;;;;;;38.40;18.00;;;6.30;69.10;;;;;;5050465;28;20422;-71
2021/03/09 10:29:17;;;;;;;30.53;16.30;;;6.60;68.30;;;;;;5041099;28;20458;-72
2021/03/09 10:31:51;;;;;;;38.33;17.53;;;6.90;67.20;;;;;;5042230;28;20950;-71
2021/03/09 10:34:19;;;;;;;40.03;18.03;;;7.00;66.40;;;;;;5046640;28;20424;-73
2021/03/09 10:36:55;;;;;;;38.10;18.70;;;7.00;65.60;;;;;;5037406;28;20515;-73
2021/03/09 10:39:23;;;;;;;35.57;18.00;;;7.00;65.40;;;;;;5054610;28;20430;-73
2021/03/09 10:41:49;;;;;;;37.77;17.63;;;6.70;66.30;;;;;;5038018;28;20428;-73
2021/03/09 10:44:35;;;;;;;32.63;18.20;;;6.80;67.20;;;;;;5018018;28;20470;-73
2021/03/09 10:47:04;;;;;;;33.03;17.77;;;7.00;65.60;;;;;;5031903;28;20778;-71
2021/03/09 10:49:31;;;;;;;34.60;18.67;;;7.20;64.80;;;;;;5040374;28;20866;-70
2021/03/09 10:52:00;;;;;;;33.37;18.70;;;7.30;64.20;;;;;;5037773;28;20450;-73
2021/03/09 10:54:26;;;;;;;32.17;17.60;;;7.40;63.90;;;;;;5038197;28;20838;-71
2021/03/09 10:56:52;;;;;;;34.13;17.67;;;7.60;64.10;;;;;;5032608;28;20427;-72
2021/03/09 10:59:18;;;;;;;32.70;17.20;;;7.70;63.10;;;;;;5039482;28;20511;-70
2021/03/09 11:01:44;;;;;;;33.50;16.73;;;8.00;62.30;;;;;;5034784;28;20938;-69
2021/03/09 11:04:10;;;;;;;32.83;16.13;;;8.20;61.30;;;;;;5049265;28;20638;-71
2021/03/09 11:06:35;;;;;;;43.97;19.50;;;8.20;60.10;;;;;;5049302;28;20184;-73
2021/03/09 11:09:01;;;;;;;29.40;17.37;;;8.20;60.10;;;;;;5049541;28;20208;-73
2021/03/09 11:11:27;;;;;;;31.60;17.10;;;8.10;60.40;;;;;;5049406;28;20195;-70
2021/03/09 11:13:53;;;;;;;32.93;16.53;;;8.00;60.70;;;;;;5049714;28;20216;-70
2021/03/09 11:16:18;;;;;;;30.30;16.97;;;8.00;60.70;;;;;;5050055;28;20192;-71
2021/03/09 11:18:44;;;;;;;33.60;15.63;;;8.00;60.70;;;;;;5040982;28;20268;-70
2021/03/09 11:21:10;;;;;;;34.50;17.00;;;7.80;60.90;;;;;;5030842;28;20192;-73
2021/03/09 11:23:37;;;;;;;35.90;17.77;;;7.80;60.90;;;;;;5033919;28;20224;-70
2021/03/09 11:26:02;;;;;;;33.90;16.43;;;7.80;61.00;;;;;;5034057;28;20420;-71
2021/03/09 11:28:28;;;;;;;37.47;18.00;;;7.80;61.30;;;;;;5051521;28;20420;-70
2021/03/09 11:30:54;;;;;;;29.03;15.80;;;7.70;61.00;;;;;;5049036;28;20789;-72
2021/03/09 11:33:20;;;;;;;32.93;15.50;;;7.70;61.00;;;;;;5051795;28;20723;-71
2021/03/09 11:35:45;;;;;;;32.33;16.57;;;7.70;60.90;;;;;;5049531;28;20184;-70
2021/03/09 11:38:11;;;;;;;27.90;15.00;;;7.70;60.30;;;;;;5037778;28;20277;-72
2021/03/09 11:40:37;;;;;;;28.77;15.77;;;7.90;59.90;;;;;;5048756;28;20222;-71
2021/03/09 11:43:03;;;;;;;34.67;16.43;;;7.90;59.60;;;;;;5031214;28;20284;-71
2021/03/09 11:45:29;;;;;;;28.60;15.50;;;8.00;59.50;;;;;;5026905;28;20424;-71
2021/03/09 11:47:55;;;;;;;28.40;14.10;;;7.90;59.30;;;;;;5047821;28;20529;-73
2021/03/09 11:50:22;;;;;;;26.33;13.10;;;7.90;59.20;;;;;;5029166;28;20574;-70
2021/03/09 11:52:47;;;;;;;31.57;14.60;;;8.10;58.40;;;;;;5042188;28;20216;-72
2021/03/09 11:55:13;;;;;;;34.23;17.10;;;8.30;57.70;;;;;;5053516;28;20481;-74
2021/03/09 11:57:39;;;;;;;29.80;14.80;;;8.40;57.40;;;;;;5036011;28;20181;-74
2021/03/09 12:00:06;;;;;;;30.50;15.07;;;8.40;56.90;;;;;;5037537;28;20252;-70
2021/03/09 12:02:32;;;;;;;25.03;13.30;;;8.60;56.90;;;;;;5053637;28;20223;-71
2021/03/09 12:04:58;;;;;;;32.63;15.07;;;8.60;55.60;;;;;;5039064;28;20989;-72
2021/03/09 12:07:24;;;;;;;36.57;14.00;;;8.60;55.70;;;;;;5052480;28;20332;-71
2021/03/09 12:09:49;;;;;;;24.33;12.40;;;8.60;54.90;;;;;;5039263;28;20216;-71
2021/03/09 12:12:15;;;;;;;20.83;12.23;;;8.70;54.90;;;;;;5051602;28;20882;-71
2021/03/09 12:14:41;;;;;;;22.47;13.57;;;8.80;54.50;;;;;;5038796;28;20188;-71
2021/03/09 12:17:07;;;;;;;22.50;12.40;;;9.10;53.70;;;;;;5041241;28;20436;-71
2021/03/09 12:19:33;;;;;;;27.00;12.27;;;9.40;53.00;;;;;;5044815;28;20197;-70
2021/03/09 12:21:59;;;;;;;24.37;12.97;;;9.50;52.00;;;;;;5042779;28;20232;-70
2021/03/09 12:24:24;;;;;;;22.10;11.87;;;9.30;51.80;;;;;;5048461;28;20463;-70
2021/03/09 12:26:50;;;;;;;23.67;12.00;;;9.30;52.00;;;;;;5043091;28;20550;-70
2021/03/09 12:29:16;;;;;;;19.30;10.93;;;9.40;51.80;;;;;;5039727;28;20176;-71
2021/03/09 12:31:42;;;;;;;21.63;11.53;;;9.50;51.20;;;;;;5042167;28;20518;-72
2021/03/09 12:34:08;;;;;;;16.77;10.07;;;9.30;50.60;;;;;;5046433;28;20193;-71
2021/03/09 12:36:33;;;;;;;17.90;9.90;;;9.30;50.60;;;;;;5043790;28;20679;-71
2021/03/09 12:38:59;;;;;;;21.97;9.83;;;9.50;50.50;;;;;;5040676;28;20592;-71
2021/03/09 12:41:25;;;;;;;19.97;11.03;;;9.50;49.10;;;;;;5041472;28;20621;-71
2021/03/09 12:43:51;;;;;;;27.00;11.73;;;9.30;49.50;;;;;;5021831;28;20511;-71
2021/03/09 12:46:17;;;;;;;19.90;11.10;;;9.10;50.20;;;;;;5043245;28;20859;-71
2021/03/09 12:48:44;;;;;;;15.17;9.77;;;9.10;50.30;;;;;;5050207;28;20203;-72